sensor_id;sensor_type;location;lat;lon;timestamp;P1;durP1;ratioP1;P2;durP2;ratioP2
19758;SDS011;10038;42.662;23.278;2023-07-29T00:01:57;7.37;;;4.07;;
19758;SDS011;10038;42.662;23.278;2023-07-29T00:04:24;4.80;;;3.17;;
19758;SDS011;10038;42.662;23.278;2023-07-29T00:06:50;5.37;;;2.77;;
19758;SDS011;10038;42.662;23.278;2023-07-29T00:09:17;3.50;;;2.83;;
19758;SDS011;10038;42.662;23.278;2023-07-29T00:11:44;3.67;;;3.37;;
19758;SDS011;10038;42.662;23.278;2023-07-29T00:14:12;3.90;;;2.90;;
19758;SDS011;10038;42.662;23.278;2023-07-29T00:16:38;3.57;;;2.90;;
19758;SDS011;10038;42.662;23.278;2023-07-29T00:19:05;3.90;;;3.50;;
19758;SDS011;10038;42.662;23.278;2023-07-29T00:21:32;3.43;;;3.13;;
19758;SDS011;10038;42.662;23.278;2023-07-29T00:23:58;3.30;;;2.73;;
19758;SDS011;10038;42.662;23.278;2023-07-29T00:26:26;6.00;;;3.73;;
19758;SDS011;10038;42.662;23.278;2023-07-29T00:28:54;6.77;;;3.27;;
19758;SDS011;10038;42.662;23.278;2023-07-29T00:31:22;3.00;;;2.70;;
19758;SDS011;10038;42.662;23.278;2023-07-29T00:33:48;4.40;;;2.90;;
19758;SDS011;10038;42.662;23.278;2023-07-29T00:36:15;4.33;;;3.37;;
19758;SDS011;10038;42.662;23.278;2023-07-29T00:38:42;4.37;;;2.97;;
19758;SDS011;10038;42.662;23.278;2023-07-29T00:41:08;4.67;;;3.07;;
19758;SDS011;10038;42.662;23.278;2023-07-29T00:43:38;4.87;;;3.17;;
19758;SDS011;10038;42.662;23.278;2023-07-29T00:46:05;3.80;;;2.93;;
19758;SDS011;10038;42.662;23.278;2023-07-29T00:48:33;3.83;;;2.67;;
19758;SDS011;10038;42.662;23.278;2023-07-29T00:51:00;4.80;;;2.77;;
19758;SDS011;10038;42.662;23.278;2023-07-29T00:53:26;4.20;;;3.73;;
19758;SDS011;10038;42.662;23.278;2023-07-29T00:55:52;6.87;;;3.60;;
19758;SDS011;10038;42.662;23.278;2023-07-29T00:58:19;3.67;;;2.70;;
19758;SDS011;10038;42.662;23.278;2023-07-29T01:00:45;4.13;;;3.07;;
19758;SDS011;10038;42.662;23.278;2023-07-29T01:03:12;3.20;;;2.90;;
19758;SDS011;10038;42.662;23.278;2023-07-29T01:05:46;3.47;;;3.00;;
19758;SDS011;10038;42.662;23.278;2023-07-29T01:08:17;3.40;;;3.10;;
19758;SDS011;10038;42.662;23.278;2023-07-29T01:10:50;3.03;;;2.70;;
19758;SDS011;10038;42.662;23.278;2023-07-29T01:13:19;3.77;;;3.37;;
19758;SDS011;10038;42.662;23.278;2023-07-29T01:15:49;3.80;;;3.40;;
19758;SDS011;10038;42.662;23.278;2023-07-29T01:18:18;4.00;;;2.93;;
19758;SDS011;10038;42.662;23.278;2023-07-29T01:20:48;4.40;;;3.87;;
19758;SDS011;10038;42.662;23.278;2023-07-29T01:23:16;3.43;;;3.13;;
19758;SDS011;10038;42.662;23.278;2023-07-29T01:25:44;3.23;;;2.93;;
19758;SDS011;10038;42.662;23.278;2023-07-29T01:28:10;3.83;;;3.00;;
19758;SDS011;10038;42.662;23.278;2023-07-29T01:30:38;5.13;;;2.90;;
19758;SDS011;10038;42.662;23.278;2023-07-29T01:33:07;6.60;;;3.20;;
19758;SDS011;10038;42.662;23.278;2023-07-29T01:35:39;4.77;;;3.20;;
19758;SDS011;10038;42.662;23.278;2023-07-29T01:38:09;4.13;;;2.80;;
19758;SDS011;10038;42.662;23.278;2023-07-29T01:40:39;4.03;;;3.63;;
19758;SDS011;10038;42.662;23.278;2023-07-29T01:43:07;4.10;;;3.23;;
19758;SDS011;10038;42.662;23.278;2023-07-29T01:45:34;5.60;;;3.07;;
19758;SDS011;10038;42.662;23.278;2023-07-29T01:48:03;4.07;;;2.90;;
19758;SDS011;10038;42.662;23.278;2023-07-29T01:50:30;6.90;;;3.30;;
19758;SDS011;10038;42.662;23.278;2023-07-29T01:52:57;3.57;;;3.27;;
19758;SDS011;10038;42.662;23.278;2023-07-29T01:55:23;4.90;;;3.77;;
19758;SDS011;10038;42.662;23.278;2023-07-29T01:57:50;3.43;;;3.10;;
19758;SDS011;10038;42.662;23.278;2023-07-29T02:00:19;4.10;;;3.70;;
19758;SDS011;10038;42.662;23.278;2023-07-29T02:02:45;5.70;;;4.53;;
19758;SDS011;10038;42.662;23.278;2023-07-29T02:05:12;9.07;;;4.30;;
19758;SDS011;10038;42.662;23.278;2023-07-29T02:07:39;5.27;;;3.27;;
19758;SDS011;10038;42.662;23.278;2023-07-29T02:10:06;5.43;;;3.70;;
19758;SDS011;10038;42.662;23.278;2023-07-29T02:12:33;5.53;;;3.63;;
19758;SDS011;10038;42.662;23.278;2023-07-29T02:14:59;4.40;;;3.33;;
19758;SDS011;10038;42.662;23.278;2023-07-29T02:17:27;7.10;;;3.20;;
19758;SDS011;10038;42.662;23.278;2023-07-29T02:19:54;4.83;;;3.37;;
19758;SDS011;10038;42.662;23.278;2023-07-29T02:22:24;3.80;;;3.50;;
19758;SDS011;10038;42.662;23.278;2023-07-29T02:24:50;6.53;;;3.23;;
19758;SDS011;10038;42.662;23.278;2023-07-29T02:27:17;4.57;;;3.57;;
19758;SDS011;10038;42.662;23.278;2023-07-29T02:29:43;4.20;;;3.43;;
19758;SDS011;10038;42.662;23.278;2023-07-29T02:32:10;3.50;;;3.07;;
19758;SDS011;10038;42.662;23.278;2023-07-29T02:34:38;5.43;;;3.60;;
19758;SDS011;10038;42.662;23.278;2023-07-29T02:37:05;5.90;;;3.60;;
19758;SDS011;10038;42.662;23.278;2023-07-29T02:39:31;4.10;;;3.70;;
19758;SDS011;10038;42.662;23.278;2023-07-29T02:41:58;5.23;;;3.77;;
19758;SDS011;10038;42.662;23.278;2023-07-29T02:44:25;3.73;;;3.33;;
19758;SDS011;10038;42.662;23.278;2023-07-29T02:46:51;10.33;;;4.17;;
19758;SDS011;10038;42.662;23.278;2023-07-29T02:49:20;4.00;;;3.20;;
19758;SDS011;10038;42.662;23.278;2023-07-29T02:51:48;5.77;;;4.37;;
19758;SDS011;10038;42.662;23.278;2023-07-29T02:54:15;6.27;;;3.90;;
19758;SDS011;10038;42.662;23.278;2023-07-29T02:56:42;13.07;;;4.60;;
19758;SDS011;10038;42.662;23.278;2023-07-29T02:59:08;5.40;;;3.43;;
19758;SDS011;10038;42.662;23.278;2023-07-29T03:01:35;4.70;;;3.67;;
19758;SDS011;10038;42.662;23.278;2023-07-29T03:04:02;4.07;;;3.67;;
19758;SDS011;10038;42.662;23.278;2023-07-29T03:06:28;4.73;;;4.30;;
19758;SDS011;10038;42.662;23.278;2023-07-29T03:08:56;5.10;;;4.00;;
19758;SDS011;10038;42.662;23.278;2023-07-29T03:11:23;9.80;;;4.43;;
19758;SDS011;10038;42.662;23.278;2023-07-29T03:13:49;8.60;;;4.30;;
19758;SDS011;10038;42.662;23.278;2023-07-29T03:16:19;4.80;;;4.03;;
19758;SDS011;10038;42.662;23.278;2023-07-29T03:18:48;4.90;;;4.40;;
19758;SDS011;10038;42.662;23.278;2023-07-29T03:21:14;7.90;;;3.63;;
19758;SDS011;10038;42.662;23.278;2023-07-29T03:23:41;6.80;;;3.80;;
19758;SDS011;10038;42.662;23.278;2023-07-29T03:26:09;9.80;;;3.80;;
19758;SDS011;10038;42.662;23.278;2023-07-29T03:28:36;5.90;;;3.67;;
19758;SDS011;10038;42.662;23.278;2023-07-29T03:31:03;4.50;;;3.73;;
19758;SDS011;10038;42.662;23.278;2023-07-29T03:33:30;6.37;;;4.60;;
19758;SDS011;10038;42.662;23.278;2023-07-29T03:35:57;8.97;;;4.77;;
19758;SDS011;10038;42.662;23.278;2023-07-29T03:38:23;5.50;;;4.37;;
19758;SDS011;10038;42.662;23.278;2023-07-29T03:40:50;4.87;;;4.37;;
19758;SDS011;10038;42.662;23.278;2023-07-29T03:43:20;7.73;;;4.20;;
19758;SDS011;10038;42.662;23.278;2023-07-29T03:45:46;14.30;;;4.47;;
19758;SDS011;10038;42.662;23.278;2023-07-29T03:48:13;5.63;;;3.90;;
19758;SDS011;10038;42.662;23.278;2023-07-29T03:50:39;5.43;;;4.47;;
19758;SDS011;10038;42.662;23.278;2023-07-29T03:53:06;5.53;;;4.57;;
19758;SDS011;10038;42.662;23.278;2023-07-29T03:55:35;6.73;;;4.40;;
19758;SDS011;10038;42.662;23.278;2023-07-29T03:58:01;6.20;;;4.60;;
19758;SDS011;10038;42.662;23.278;2023-07-29T04:00:29;5.40;;;4.50;;
19758;SDS011;10038;42.662;23.278;2023-07-29T04:02:56;7.33;;;4.90;;
19758;SDS011;10038;42.662;23.278;2023-07-29T04:05:23;6.03;;;4.60;;
19758;SDS011;10038;42.662;23.278;2023-07-29T04:07:49;5.83;;;4.83;;
19758;SDS011;10038;42.662;23.278;2023-07-29T04:10:17;6.63;;;5.30;;
19758;SDS011;10038;42.662;23.278;2023-07-29T04:12:44;7.00;;;4.97;;
19758;SDS011;10038;42.662;23.278;2023-07-29T04:15:10;5.83;;;4.90;;
19758;SDS011;10038;42.662;23.278;2023-07-29T04:17:38;11.80;;;5.60;;
19758;SDS011;10038;42.662;23.278;2023-07-29T04:20:05;6.73;;;5.20;;
19758;SDS011;10038;42.662;23.278;2023-07-29T04:22:33;6.97;;;5.97;;
19758;SDS011;10038;42.662;23.278;2023-07-29T04:24:59;5.70;;;5.10;;
19758;SDS011;10038;42.662;23.278;2023-07-29T04:27:26;7.57;;;4.90;;
19758;SDS011;10038;42.662;23.278;2023-07-29T04:29:53;9.87;;;5.57;;
19758;SDS011;10038;42.662;23.278;2023-07-29T04:32:19;7.70;;;4.93;;
19758;SDS011;10038;42.662;23.278;2023-07-29T04:34:48;10.60;;;5.13;;
19758;SDS011;10038;42.662;23.278;2023-07-29T04:37:14;6.13;;;4.60;;
19758;SDS011;10038;42.662;23.278;2023-07-29T04:39:41;6.57;;;5.57;;
19758;SDS011;10038;42.662;23.278;2023-07-29T04:42:07;6.23;;;5.07;;
19758;SDS011;10038;42.662;23.278;2023-07-29T04:44:34;5.33;;;4.67;;
19758;SDS011;10038;42.662;23.278;2023-07-29T04:47:01;7.20;;;5.20;;
19758;SDS011;10038;42.662;23.278;2023-07-29T04:49:28;7.33;;;5.47;;
19758;SDS011;10038;42.662;23.278;2023-07-29T04:51:56;7.40;;;5.43;;
19758;SDS011;10038;42.662;23.278;2023-07-29T04:54:22;6.13;;;5.20;;
19758;SDS011;10038;42.662;23.278;2023-07-29T04:56:49;7.73;;;5.83;;
19758;SDS011;10038;42.662;23.278;2023-07-29T04:59:16;6.10;;;5.50;;
19758;SDS011;10038;42.662;23.278;2023-07-29T05:01:42;9.93;;;6.20;;
19758;SDS011;10038;42.662;23.278;2023-07-29T05:04:09;8.37;;;5.80;;
19758;SDS011;10038;42.662;23.278;2023-07-29T05:06:36;9.83;;;7.57;;
19758;SDS011;10038;42.662;23.278;2023-07-29T05:09:13;17.07;;;7.10;;
19758;SDS011;10038;42.662;23.278;2023-07-29T05:11:40;6.67;;;5.93;;
19758;SDS011;10038;42.662;23.278;2023-07-29T05:14:06;11.67;;;7.33;;
19758;SDS011;10038;42.662;23.278;2023-07-29T05:16:34;8.23;;;6.10;;
19758;SDS011;10038;42.662;23.278;2023-07-29T05:19:01;8.73;;;5.73;;
19758;SDS011;10038;42.662;23.278;2023-07-29T05:21:29;7.80;;;6.10;;
19758;SDS011;10038;42.662;23.278;2023-07-29T05:23:55;8.23;;;5.30;;
19758;SDS011;10038;42.662;23.278;2023-07-29T05:26:24;14.53;;;5.33;;
19758;SDS011;10038;42.662;23.278;2023-07-29T05:28:50;11.67;;;6.53;;
19758;SDS011;10038;42.662;23.278;2023-07-29T05:31:17;7.30;;;5.80;;
19758;SDS011;10038;42.662;23.278;2023-07-29T05:33:44;6.47;;;5.50;;
19758;SDS011;10038;42.662;23.278;2023-07-29T05:36:10;12.63;;;5.97;;
19758;SDS011;10038;42.662;23.278;2023-07-29T05:38:37;6.30;;;5.70;;
19758;SDS011;10038;42.662;23.278;2023-07-29T05:41:04;6.53;;;5.50;;
19758;SDS011;10038;42.662;23.278;2023-07-29T05:43:32;7.90;;;5.53;;
19758;SDS011;10038;42.662;23.278;2023-07-29T05:45:59;6.07;;;5.27;;
19758;SDS011;10038;42.662;23.278;2023-07-29T05:48:25;6.80;;;5.13;;
19758;SDS011;10038;42.662;23.278;2023-07-29T05:50:52;5.53;;;5.03;;
19758;SDS011;10038;42.662;23.278;2023-07-29T05:53:19;5.80;;;5.07;;
19758;SDS011;10038;42.662;23.278;2023-07-29T05:55:45;8.60;;;5.90;;
19758;SDS011;10038;42.662;23.278;2023-07-29T05:58:12;9.53;;;5.30;;
19758;SDS011;10038;42.662;23.278;2023-07-29T06:00:40;5.30;;;4.80;;
19758;SDS011;10038;42.662;23.278;2023-07-29T06:03:07;6.83;;;5.33;;
19758;SDS011;10038;42.662;23.278;2023-07-29T06:05:34;7.43;;;5.17;;
19758;SDS011;10038;42.662;23.278;2023-07-29T06:08:00;5.30;;;4.80;;
19758;SDS011;10038;42.662;23.278;2023-07-29T06:10:27;7.77;;;5.33;;
19758;SDS011;10038;42.662;23.278;2023-07-29T06:12:54;8.00;;;5.00;;
19758;SDS011;10038;42.662;23.278;2023-07-29T06:15:20;5.67;;;4.73;;
19758;SDS011;10038;42.662;23.278;2023-07-29T06:17:49;5.80;;;4.23;;
19758;SDS011;10038;42.662;23.278;2023-07-29T06:20:16;9.30;;;4.50;;
19758;SDS011;10038;42.662;23.278;2023-07-29T06:22:42;4.90;;;4.50;;
19758;SDS011;10038;42.662;23.278;2023-07-29T06:25:09;5.20;;;4.00;;
19758;SDS011;10038;42.662;23.278;2023-07-29T06:27:36;5.17;;;4.30;;
19758;SDS011;10038;42.662;23.278;2023-07-29T06:30:03;5.60;;;5.10;;
19758;SDS011;10038;42.662;23.278;2023-07-29T06:32:29;4.87;;;4.40;;
19758;SDS011;10038;42.662;23.278;2023-07-29T06:34:57;9.63;;;4.40;;
19758;SDS011;10038;42.662;23.278;2023-07-29T06:37:24;4.60;;;4.20;;
19758;SDS011;10038;42.662;23.278;2023-07-29T06:39:51;6.00;;;5.10;;
19758;SDS011;10038;42.662;23.278;2023-07-29T06:42:17;5.17;;;4.67;;
19758;SDS011;10038;42.662;23.278;2023-07-29T06:45:01;5.40;;;4.90;;
19758;SDS011;10038;42.662;23.278;2023-07-29T06:47:54;3.87;;;3.57;;
19758;SDS011;10038;42.662;23.278;2023-07-29T06:50:22;4.47;;;4.07;;
19758;SDS011;10038;42.662;23.278;2023-07-29T06:52:48;4.40;;;4.10;;
19758;SDS011;10038;42.662;23.278;2023-07-29T06:55:15;6.03;;;4.40;;
19758;SDS011;10038;42.662;23.278;2023-07-29T06:57:42;3.67;;;3.37;;
19758;SDS011;10038;42.662;23.278;2023-07-29T07:00:09;4.17;;;3.80;;
19758;SDS011;10038;42.662;23.278;2023-07-29T07:02:36;3.33;;;3.03;;
19758;SDS011;10038;42.662;23.278;2023-07-29T07:05:02;3.67;;;3.37;;
19758;SDS011;10038;42.662;23.278;2023-07-29T07:07:31;3.73;;;3.43;;
19758;SDS011;10038;42.662;23.278;2023-07-29T07:09:57;5.83;;;3.60;;
19758;SDS011;10038;42.662;23.278;2023-07-29T07:12:24;4.10;;;3.80;;
19758;SDS011;10038;42.662;23.278;2023-07-29T07:14:50;5.63;;;3.40;;
19758;SDS011;10038;42.662;23.278;2023-07-29T07:17:17;5.40;;;3.70;;
19758;SDS011;10038;42.662;23.278;2023-07-29T07:19:44;4.33;;;3.43;;
19758;SDS011;10038;42.662;23.278;2023-07-29T07:22:11;5.80;;;3.87;;
19758;SDS011;10038;42.662;23.278;2023-07-29T07:24:39;3.87;;;3.57;;
19758;SDS011;10038;42.662;23.278;2023-07-29T07:27:06;4.13;;;3.60;;
19758;SDS011;10038;42.662;23.278;2023-07-29T07:29:33;8.33;;;3.57;;
19758;SDS011;10038;42.662;23.278;2023-07-29T07:31:59;4.50;;;4.13;;
19758;SDS011;10038;42.662;23.278;2023-07-29T07:34:26;4.27;;;3.87;;
19758;SDS011;10038;42.662;23.278;2023-07-29T07:36:53;4.00;;;3.70;;
19758;SDS011;10038;42.662;23.278;2023-07-29T07:39:19;6.63;;;4.70;;
19758;SDS011;10038;42.662;23.278;2023-07-29T07:41:47;6.43;;;4.70;;
19758;SDS011;10038;42.662;23.278;2023-07-29T07:44:14;5.20;;;4.67;;
19758;SDS011;10038;42.662;23.278;2023-07-29T07:46:43;6.10;;;4.23;;
19758;SDS011;10038;42.662;23.278;2023-07-29T07:49:09;6.13;;;4.50;;
19758;SDS011;10038;42.662;23.278;2023-07-29T07:51:36;4.70;;;4.03;;
19758;SDS011;10038;42.662;23.278;2023-07-29T07:54:03;5.70;;;4.47;;
19758;SDS011;10038;42.662;23.278;2023-07-29T07:56:29;4.43;;;3.93;;
19758;SDS011;10038;42.662;23.278;2023-07-29T07:58:57;4.80;;;4.40;;
19758;SDS011;10038;42.662;23.278;2023-07-29T08:01:24;5.03;;;4.47;;
19758;SDS011;10038;42.662;23.278;2023-07-29T08:03:51;5.53;;;4.03;;
19758;SDS011;10038;42.662;23.278;2023-07-29T08:06:17;5.77;;;4.20;;
19758;SDS011;10038;42.662;23.278;2023-07-29T08:08:44;9.73;;;4.80;;
19758;SDS011;10038;42.662;23.278;2023-07-29T08:11:11;4.83;;;4.43;;
19758;SDS011;10038;42.662;23.278;2023-07-29T08:13:37;4.77;;;4.37;;
19758;SDS011;10038;42.662;23.278;2023-07-29T08:16:06;5.37;;;4.10;;
19758;SDS011;10038;42.662;23.278;2023-07-29T08:18:32;3.87;;;3.57;;
19758;SDS011;10038;42.662;23.278;2023-07-29T08:20:59;4.40;;;4.00;;
19758;SDS011;10038;42.662;23.278;2023-07-29T08:23:28;6.67;;;4.20;;
19758;SDS011;10038;42.662;23.278;2023-07-29T08:25:56;6.70;;;3.93;;
19758;SDS011;10038;42.662;23.278;2023-07-29T08:28:26;4.80;;;4.40;;
19758;SDS011;10038;42.662;23.278;2023-07-29T08:30:57;4.40;;;4.00;;
19758;SDS011;10038;42.662;23.278;2023-07-29T08:33:25;6.70;;;4.40;;
19758;SDS011;10038;42.662;23.278;2023-07-29T08:35:52;5.00;;;4.60;;
19758;SDS011;10038;42.662;23.278;2023-07-29T08:38:19;4.50;;;4.10;;
19758;SDS011;10038;42.662;23.278;2023-07-29T08:40:48;8.13;;;4.20;;
19758;SDS011;10038;42.662;23.278;2023-07-29T08:43:16;3.57;;;3.27;;
19758;SDS011;10038;42.662;23.278;2023-07-29T08:45:45;4.30;;;3.90;;
19758;SDS011;10038;42.662;23.278;2023-07-29T08:48:12;10.07;;;4.40;;
19758;SDS011;10038;42.662;23.278;2023-07-29T08:50:43;2.87;;;2.57;;
19758;SDS011;10038;42.662;23.278;2023-07-29T08:53:10;3.70;;;3.40;;
19758;SDS011;10038;42.662;23.278;2023-07-29T08:55:37;4.90;;;3.87;;
19758;SDS011;10038;42.662;23.278;2023-07-29T08:58:05;3.87;;;3.20;;
19758;SDS011;10038;42.662;23.278;2023-07-29T09:00:32;2.90;;;2.57;;
19758;SDS011;10038;42.662;23.278;2023-07-29T09:02:59;2.90;;;2.60;;
19758;SDS011;10038;42.662;23.278;2023-07-29T09:05:32;3.37;;;2.20;;
19758;SDS011;10038;42.662;23.278;2023-07-29T09:08:00;3.00;;;2.37;;
19758;SDS011;10038;42.662;23.278;2023-07-29T09:10:28;2.50;;;2.30;;
19758;SDS011;10038;42.662;23.278;2023-07-29T09:12:55;4.23;;;2.97;;
19758;SDS011;10038;42.662;23.278;2023-07-29T09:15:28;9.30;;;2.53;;
19758;SDS011;10038;42.662;23.278;2023-07-29T09:17:55;2.67;;;2.47;;
19758;SDS011;10038;42.662;23.278;2023-07-29T09:20:25;4.20;;;2.10;;
19758;SDS011;10038;42.662;23.278;2023-07-29T09:22:52;2.40;;;2.20;;
19758;SDS011;10038;42.662;23.278;2023-07-29T09:25:23;2.50;;;2.30;;
19758;SDS011;10038;42.662;23.278;2023-07-29T09:27:50;2.80;;;2.00;;
19758;SDS011;10038;42.662;23.278;2023-07-29T09:30:17;3.37;;;3.10;;
19758;SDS011;10038;42.662;23.278;2023-07-29T09:32:44;3.00;;;2.70;;
19758;SDS011;10038;42.662;23.278;2023-07-29T09:35:11;2.50;;;2.30;;
19758;SDS011;10038;42.662;23.278;2023-07-29T09:37:37;2.87;;;2.03;;
19758;SDS011;10038;42.662;23.278;2023-07-29T09:40:05;3.60;;;2.30;;
19758;SDS011;10038;42.662;23.278;2023-07-29T09:42:33;2.50;;;2.00;;
19758;SDS011;10038;42.662;23.278;2023-07-29T09:45:00;2.77;;;2.53;;
19758;SDS011;10038;42.662;23.278;2023-07-29T09:47:27;3.30;;;1.77;;
19758;SDS011;10038;42.662;23.278;2023-07-29T09:49:54;5.83;;;1.70;;
19758;SDS011;10038;42.662;23.278;2023-07-29T09:52:21;4.70;;;2.00;;
19758;SDS011;10038;42.662;23.278;2023-07-29T09:54:48;2.43;;;1.87;;
19758;SDS011;10038;42.662;23.278;2023-07-29T09:57:16;2.50;;;1.90;;
19758;SDS011;10038;42.662;23.278;2023-07-29T09:59:44;2.40;;;2.20;;
19758;SDS011;10038;42.662;23.278;2023-07-29T10:02:19;1.70;;;1.60;;
19758;SDS011;10038;42.662;23.278;2023-07-29T10:04:47;2.00;;;1.87;;
19758;SDS011;10038;42.662;23.278;2023-07-29T10:07:14;2.53;;;2.33;;
19758;SDS011;10038;42.662;23.278;2023-07-29T10:09:41;2.80;;;1.97;;
19758;SDS011;10038;42.662;23.278;2023-07-29T10:12:08;2.53;;;1.83;;
19758;SDS011;10038;42.662;23.278;2023-07-29T10:14:36;2.87;;;1.67;;
19758;SDS011;10038;42.662;23.278;2023-07-29T10:17:06;1.50;;;1.40;;
19758;SDS011;10038;42.662;23.278;2023-07-29T10:19:32;3.50;;;1.47;;
19758;SDS011;10038;42.662;23.278;2023-07-29T10:22:00;2.17;;;1.80;;
19758;SDS011;10038;42.662;23.278;2023-07-29T10:24:29;3.70;;;1.50;;
19758;SDS011;10038;42.662;23.278;2023-07-29T10:26:57;2.53;;;1.40;;
19758;SDS011;10038;42.662;23.278;2023-07-29T10:29:24;2.83;;;1.47;;
19758;SDS011;10038;42.662;23.278;2023-07-29T10:31:52;8.97;;;1.50;;
19758;SDS011;10038;42.662;23.278;2023-07-29T10:34:20;1.60;;;1.50;;
19758;SDS011;10038;42.662;23.278;2023-07-29T10:36:48;1.70;;;1.60;;
19758;SDS011;10038;42.662;23.278;2023-07-29T10:39:15;1.80;;;1.50;;
19758;SDS011;10038;42.662;23.278;2023-07-29T10:47:10;1.60;;;1.50;;
19758;SDS011;10038;42.662;23.278;2023-07-29T10:49:41;1.43;;;1.33;;
19758;SDS011;10038;42.662;23.278;2023-07-29T10:52:07;1.90;;;1.80;;
19758;SDS011;10038;42.662;23.278;2023-07-29T10:54:41;4.37;;;1.50;;
19758;SDS011;10038;42.662;23.278;2023-07-29T10:57:08;3.73;;;1.73;;
19758;SDS011;10038;42.662;23.278;2023-07-29T10:59:38;2.07;;;1.60;;
19758;SDS011;10038;42.662;23.278;2023-07-29T11:02:11;1.50;;;1.40;;
19758;SDS011;10038;42.662;23.278;2023-07-29T11:04:47;1.67;;;1.57;;
19758;SDS011;10038;42.662;23.278;2023-07-29T11:07:23;2.30;;;1.40;;
19758;SDS011;10038;42.662;23.278;2023-07-29T11:09:53;1.77;;;1.67;;
19758;SDS011;10038;42.662;23.278;2023-07-29T11:12:36;1.80;;;1.50;;
19758;SDS011;10038;42.662;23.278;2023-07-29T11:15:03;1.50;;;1.40;;
19758;SDS011;10038;42.662;23.278;2023-07-29T11:17:31;1.60;;;1.50;;
19758;SDS011;10038;42.662;23.278;2023-07-29T11:20:00;5.73;;;1.60;;
19758;SDS011;10038;42.662;23.278;2023-07-29T11:22:27;1.90;;;1.60;;
19758;SDS011;10038;42.662;23.278;2023-07-29T11:24:54;2.63;;;1.40;;
19758;SDS011;10038;42.662;23.278;2023-07-29T11:27:21;1.60;;;1.50;;
19758;SDS011;10038;42.662;23.278;2023-07-29T11:29:48;2.23;;;1.30;;
19758;SDS011;10038;42.662;23.278;2023-07-29T11:32:15;1.83;;;1.50;;
19758;SDS011;10038;42.662;23.278;2023-07-29T11:34:42;1.63;;;1.53;;
19758;SDS011;10038;42.662;23.278;2023-07-29T11:37:10;1.40;;;1.30;;
19758;SDS011;10038;42.662;23.278;2023-07-29T11:39:39;1.67;;;1.57;;
19758;SDS011;10038;42.662;23.278;2023-07-29T11:42:06;1.70;;;1.60;;
19758;SDS011;10038;42.662;23.278;2023-07-29T11:44:32;1.63;;;1.53;;
19758;SDS011;10038;42.662;23.278;2023-07-29T11:46:59;2.50;;;1.40;;
19758;SDS011;10038;42.662;23.278;2023-07-29T11:49:26;2.17;;;1.60;;
19758;SDS011;10038;42.662;23.278;2023-07-29T11:51:53;1.90;;;1.80;;
19758;SDS011;10038;42.662;23.278;2023-07-29T11:54:21;2.33;;;1.40;;
19758;SDS011;10038;42.662;23.278;2023-07-29T11:56:47;1.60;;;1.50;;
19758;SDS011;10038;42.662;23.278;2023-07-29T11:59:14;4.20;;;1.60;;
19758;SDS011;10038;42.662;23.278;2023-07-29T12:01:41;1.93;;;1.70;;
19758;SDS011;10038;42.662;23.278;2023-07-29T12:04:08;1.60;;;1.50;;
19758;SDS011;10038;42.662;23.278;2023-07-29T12:06:35;2.17;;;1.33;;
19758;SDS011;10038;42.662;23.278;2023-07-29T12:09:02;1.47;;;1.37;;
19758;SDS011;10038;42.662;23.278;2023-07-29T12:11:31;1.73;;;1.63;;
19758;SDS011;10038;42.662;23.278;2023-07-29T12:13:59;3.50;;;1.90;;
19758;SDS011;10038;42.662;23.278;2023-07-29T12:16:26;2.40;;;1.40;;
19758;SDS011;10038;42.662;23.278;2023-07-29T12:18:59;1.57;;;1.47;;
19758;SDS011;10038;42.662;23.278;2023-07-29T12:21:26;5.17;;;1.70;;
19758;SDS011;10038;42.662;23.278;2023-07-29T12:23:53;1.80;;;1.70;;
19758;SDS011;10038;42.662;23.278;2023-07-29T12:26:20;1.60;;;1.40;;
19758;SDS011;10038;42.662;23.278;2023-07-29T12:28:48;2.47;;;1.77;;
19758;SDS011;10038;42.662;23.278;2023-07-29T12:31:15;2.17;;;1.70;;
19758;SDS011;10038;42.662;23.278;2023-07-29T12:33:42;1.80;;;1.60;;
19758;SDS011;10038;42.662;23.278;2023-07-29T12:36:09;2.67;;;1.60;;
19758;SDS011;10038;42.662;23.278;2023-07-29T12:38:38;1.33;;;1.20;;
19758;SDS011;10038;42.662;23.278;2023-07-29T12:41:04;1.50;;;1.40;;
19758;SDS011;10038;42.662;23.278;2023-07-29T12:43:31;2.37;;;1.40;;
19758;SDS011;10038;42.662;23.278;2023-07-29T12:46:01;1.47;;;1.37;;
19758;SDS011;10038;42.662;23.278;2023-07-29T12:48:28;1.43;;;1.30;;
19758;SDS011;10038;42.662;23.278;2023-07-29T12:50:55;5.63;;;1.63;;
19758;SDS011;10038;42.662;23.278;2023-07-29T12:53:21;1.50;;;1.40;;
19758;SDS011;10038;42.662;23.278;2023-07-29T12:55:48;1.60;;;1.50;;
19758;SDS011;10038;42.662;23.278;2023-07-29T12:58:35;1.53;;;1.43;;
19758;SDS011;10038;42.662;23.278;2023-07-29T13:01:03;5.13;;;1.30;;
19758;SDS011;10038;42.662;23.278;2023-07-29T13:03:34;2.33;;;1.33;;
19758;SDS011;10038;42.662;23.278;2023-07-29T13:06:01;1.47;;;1.37;;
19758;SDS011;10038;42.662;23.278;2023-07-29T13:08:29;2.80;;;1.50;;
19758;SDS011;10038;42.662;23.278;2023-07-29T13:10:56;1.40;;;1.20;;
19758;SDS011;10038;42.662;23.278;2023-07-29T13:13:23;1.50;;;1.30;;
19758;SDS011;10038;42.662;23.278;2023-07-29T13:15:49;1.50;;;1.40;;
19758;SDS011;10038;42.662;23.278;2023-07-29T13:18:17;2.10;;;1.37;;
19758;SDS011;10038;42.662;23.278;2023-07-29T13:20:44;1.67;;;1.50;;
19758;SDS011;10038;42.662;23.278;2023-07-29T13:23:11;1.53;;;1.43;;
19758;SDS011;10038;42.662;23.278;2023-07-29T13:25:37;2.67;;;1.53;;
19758;SDS011;10038;42.662;23.278;2023-07-29T13:28:04;1.77;;;1.40;;
19758;SDS011;10038;42.662;23.278;2023-07-29T13:30:31;1.53;;;1.33;;
19758;SDS011;10038;42.662;23.278;2023-07-29T13:32:58;1.70;;;1.60;;
19758;SDS011;10038;42.662;23.278;2023-07-29T13:35:26;1.93;;;1.40;;
19758;SDS011;10038;42.662;23.278;2023-07-29T13:37:53;1.90;;;1.80;;
19758;SDS011;10038;42.662;23.278;2023-07-29T13:40:19;2.07;;;1.67;;
19758;SDS011;10038;42.662;23.278;2023-07-29T13:42:46;2.57;;;1.80;;
19758;SDS011;10038;42.662;23.278;2023-07-29T13:45:13;2.47;;;1.80;;
19758;SDS011;10038;42.662;23.278;2023-07-29T13:47:39;2.90;;;1.93;;
19758;SDS011;10038;42.662;23.278;2023-07-29T13:50:06;1.77;;;1.67;;
19758;SDS011;10038;42.662;23.278;2023-07-29T13:52:35;2.30;;;2.10;;
19758;SDS011;10038;42.662;23.278;2023-07-29T13:55:02;3.80;;;2.20;;
19758;SDS011;10038;42.662;23.278;2023-07-29T14:00:21;3.70;;;2.63;;
19758;SDS011;10038;42.662;23.278;2023-07-29T14:02:47;2.53;;;2.17;;
19758;SDS011;10038;42.662;23.278;2023-07-29T14:05:14;4.50;;;2.00;;
19758;SDS011;10038;42.662;23.278;2023-07-29T14:07:42;3.10;;;2.20;;
19758;SDS011;10038;42.662;23.278;2023-07-29T14:10:09;2.60;;;2.40;;
19758;SDS011;10038;42.662;23.278;2023-07-29T14:12:36;2.50;;;2.30;;
19758;SDS011;10038;42.662;23.278;2023-07-29T14:15:03;11.77;;;2.67;;
19758;SDS011;10038;42.662;23.278;2023-07-29T14:17:30;1.93;;;1.77;;
19758;SDS011;10038;42.662;23.278;2023-07-29T14:19:57;2.53;;;2.30;;
19758;SDS011;10038;42.662;23.278;2023-07-29T14:22:24;3.10;;;2.13;;
19758;SDS011;10038;42.662;23.278;2023-07-29T14:24:52;2.47;;;2.07;;
19758;SDS011;10038;42.662;23.278;2023-07-29T14:27:19;2.97;;;2.20;;
19758;SDS011;10038;42.662;23.278;2023-07-29T14:29:46;2.23;;;2.03;;
19758;SDS011;10038;42.662;23.278;2023-07-29T14:32:12;8.53;;;2.50;;
19758;SDS011;10038;42.662;23.278;2023-07-29T14:34:39;1.90;;;1.70;;
19758;SDS011;10038;42.662;23.278;2023-07-29T14:37:06;1.70;;;1.60;;
19758;SDS011;10038;42.662;23.278;2023-07-29T14:39:32;1.80;;;1.70;;
19758;SDS011;10038;42.662;23.278;2023-07-29T14:42:01;2.10;;;1.93;;
19758;SDS011;10038;42.662;23.278;2023-07-29T14:44:27;5.93;;;1.80;;